Time;durP1;ratioP1;P1;durP2;ratioP2;P2;SDS_P1;SDS_P2;PMS_P1;PMS_P2;Temp;Humidity;BMP_temperature;BMP_pressure;BME280_temperature;BME280_humidity;BME280_pressure;Samples;Min_cycle;Max_cycle;Signal;HPM_P1;HPM_P2
2021/06/29 00:02:23;;;;;;;6.13;3.90;;;;;;;23.96;58.03;100092.44;5036288;28;20032;-71
2021/06/29 00:04:49;;;;;;;8.25;4.13;;;;;;;23.89;58.00;100087.91;5036444;28;20053;-72
2021/06/29 00:07:14;;;;;;;4.40;3.65;;;;;;;23.83;58.02;100087.06;5036259;28;20131;-71
2021/06/29 00:09:39;;;;;;;7.15;3.85;;;;;;;23.77;58.20;100082.53;5036682;28;20033;-70
2021/06/29 00:12:05;;;;;;;6.88;3.63;;;;;;;23.73;59.03;100088.47;5036252;28;20429;-69
2021/06/29 00:14:30;;;;;;;5.40;3.80;;;;;;;23.67;58.35;100091.28;5018906;28;20317;-71
2021/06/29 00:16:56;;;;;;;5.78;3.92;;;;;;;23.61;58.42;100078.94;5036588;28;20031;-72
2021/06/29 00:19:21;;;;;;;7.40;3.88;;;;;;;23.55;59.20;100083.75;5035778;28;20432;-72
2021/06/29 00:21:47;;;;;;;6.28;4.32;;;;;;;23.49;59.10;100080.03;5018919;28;20021;-71
2021/06/29 00:24:13;;;;;;;4.90;3.70;;;;;;;23.44;58.65;100080.75;5035984;28;20312;-72
2021/06/29 00:26:38;;;;;;;4.45;3.80;;;;;;;23.40;58.35;100080.16;5036213;28;20105;-70
2021/06/29 00:29:03;;;;;;;5.47;3.90;;;;;;;23.36;58.13;100073.84;5036047;28;20049;-72
2021/06/29 00:31:29;;;;;;;5.68;3.80;;;;;;;23.31;58.29;100068.84;5018651;28;20029;-72
2021/06/29 00:33:54;;;;;;;4.55;4.03;;;;;;;23.26;58.38;100064.56;5035971;28;20022;-73
2021/06/29 00:36:20;;;;;;;5.28;3.80;;;;;;;23.21;58.45;100062.41;5034503;28;20030;-70
2021/06/29 00:38:46;;;;;;;6.75;4.60;;;;;;;23.19;58.56;100058.47;5035498;28;20029;-70
2021/06/29 00:41:12;;;;;;;9.27;4.70;;;;;;;23.17;58.51;100055.31;5035756;28;20044;-69
2021/06/29 00:43:37;;;;;;;8.23;5.13;;;;;;;23.15;58.37;100057.91;5035914;28;20325;-70
2021/06/29 00:46:03;;;;;;;9.27;4.15;;;;;;;23.15;58.20;100057.91;5035979;28;20025;-70
2021/06/29 00:48:29;;;;;;;5.30;4.75;;;;;;;23.12;58.05;100051.88;5035369;28;20032;-71
2021/06/29 00:50:55;;;;;;;6.72;4.82;;;;;;;23.09;58.48;100043.47;5035793;28;20037;-67
2021/06/29 00:53:20;;;;;;;6.93;4.53;;;;;;;23.05;58.57;100046.56;5035488;28;20053;-69
2021/06/29 00:55:46;;;;;;;8.45;4.15;;;;;;;23.02;59.26;100050.41;5036184;28;20025;-70
2021/06/29 00:58:12;;;;;;;5.90;4.20;;;;;;;22.98;59.24;100044.06;5035549;28;20432;-70
2021/06/29 01:00:41;;;;;;;8.93;4.88;;;;;;;22.95;59.23;100044.28;5018174;28;20405;-70
2021/06/29 01:03:07;;;;;;;8.75;4.90;;;;;;;22.91;59.21;100043.69;5035566;28;20029;-71
2021/06/29 01:05:33;;;;;;;8.82;5.20;;;;;;;22.87;59.15;100048.84;5035072;28;20130;-69
2021/06/29 01:07:59;;;;;;;7.93;4.70;;;;;;;22.85;59.36;100035.03;5035736;28;20052;-70
2021/06/29 01:10:25;;;;;;;6.65;4.93;;;;;;;22.83;59.12;100045.41;5035330;28;20028;-70
2021/06/29 01:12:50;;;;;;;8.80;5.07;;;;;;;22.81;59.26;100037.31;5035689;28;20336;-71
2021/06/29 01:15:22;;;;;;;7.35;4.60;;;;;;;22.76;59.90;100027.31;5035257;28;20033;-71
2021/06/29 01:17:52;;;;;;;9.32;4.97;;;;;;;22.73;60.33;100027.47;5035391;28;20021;-72
2021/06/29 01:20:23;;;;;;;12.18;4.97;;;;;;;22.68;60.37;100022.47;5035374;28;20535;-71
2021/06/29 01:22:52;;;;;;;7.78;4.60;;;;;;;22.64;60.77;100033.31;5035435;28;20385;-73
2021/06/29 01:25:17;;;;;;;7.28;5.13;;;;;;;22.59;60.84;100029.09;5035196;28;20032;-71
2021/06/29 01:32:37;;;;;;;14.18;5.15;;;;;;;22.48;60.71;100035.44;5035553;28;20025;-71
2021/06/29 01:35:06;;;;;;;8.82;5.00;;;;;;;22.44;60.45;100034.81;5037318;28;20018;-70
2021/06/29 01:37:31;;;;;;;7.95;4.70;;;;;;;22.39;60.48;100029.78;5039520;28;20026;-69
2021/06/29 01:42:42;;;;;;;8.95;3.63;;;;;;;22.36;60.17;100025.03;5038653;28;20469;-70
2021/06/29 01:45:08;;;;;;;7.55;3.80;;;;;;;22.33;60.07;100023.16;5038775;28;20026;-69
2021/06/29 01:47:53;;;;;;;4.90;4.40;;;;;;;22.29;60.21;100028.31;5039265;28;20036;-70
2021/06/29 01:50:19;;;;;;;9.00;3.65;;;;;;;22.25;59.99;100024.84;5038974;28;20401;-70
2021/06/29 01:52:45;;;;;;;8.30;4.05;;;;;;;22.26;59.84;100029.28;5039215;28;20060;-71
2021/06/29 01:55:11;;;;;;;8.07;4.05;;;;;;;22.24;59.67;100017.53;5038777;28;20424;-70
2021/06/29 01:57:39;;;;;;;7.05;3.97;;;;;;;22.22;59.89;100022.97;5039107;28;20463;-71
2021/06/29 02:00:08;;;;;;;4.88;3.55;;;;;;;22.18;60.00;100028.06;5038731;28;20032;-71
2021/06/29 02:02:34;;;;;;;7.28;4.03;;;;;;;22.15;59.92;100029.06;5038913;28;20029;-71
2021/06/29 02:04:59;;;;;;;8.75;3.97;;;;;;;22.10;59.93;100021.94;5038989;28;20439;-70
2021/06/29 02:07:25;;;;;;;9.35;4.50;;;;;;;22.08;59.66;100023.72;5038708;28;20033;-71
2021/06/29 02:09:50;;;;;;;7.68;4.30;;;;;;;22.05;59.52;100025.50;5039040;28;20022;-71
2021/06/29 02:12:16;;;;;;;9.88;3.70;;;;;;;22.03;59.55;100027.25;5038284;28;20025;-71
2021/06/29 02:14:41;;;;;;;6.07;4.38;;;;;;;21.99;59.73;100038.88;5038660;28;20070;-70
2021/06/29 02:17:07;;;;;;;5.53;4.40;;;;;;;21.94;59.57;100030.19;5038466;28;20025;-70
2021/06/29 02:19:32;;;;;;;4.78;3.90;;;;;;;21.91;59.84;100026.22;5038692;28;20037;-71
2021/06/29 02:21:57;;;;;;;9.00;4.30;;;;;;;21.87;60.08;100025.63;5038645;28;20029;-67
2021/06/29 02:24:23;;;;;;;5.85;4.30;;;;;;;21.84;60.31;100024.53;5038262;28;20036;-68
2021/06/29 02:26:48;;;;;;;6.07;4.78;;;;;;;21.79;60.07;100025.22;5038490;28;20040;-68
2021/06/29 02:29:13;;;;;;;6.40;4.63;;;;;;;21.75;60.02;100024.63;5038120;28;20025;-67
2021/06/29 02:31:39;;;;;;;5.43;4.63;;;;;;;21.72;59.98;100025.59;5038375;28;20075;-66
2021/06/29 02:34:04;;;;;;;4.47;4.07;;;;;;;21.70;59.98;100027.38;5038074;28;20021;-67
2021/06/29 02:36:30;;;;;;;7.40;4.65;;;;;;;21.66;60.23;100023.91;5037684;28;20025;-67
2021/06/29 02:38:55;;;;;;;4.95;4.50;;;;;;;21.63;60.66;100024.84;5017569;28;20065;-71
2021/06/29 02:41:21;;;;;;;6.22;4.40;;;;;;;21.57;61.10;100030.47;5035449;28;20095;-67
2021/06/29 02:43:47;;;;;;;10.95;4.85;;;;;;;21.53;60.41;100029.88;5037268;28;20033;-71
2021/06/29 02:46:13;;;;;;;9.88;5.20;;;;;;;21.52;60.59;100028.28;5036827;28;20028;-70
2021/06/29 02:48:38;;;;;;;8.57;5.28;;;;;;;21.53;60.61;100027.00;5030728;28;20014;-71
2021/06/29 02:51:04;;;;;;;8.05;4.70;;;;;;;21.51;60.78;100029.56;5020262;28;20017;-71
2021/06/29 02:53:29;;;;;;;8.60;5.95;;;;;;;21.47;60.92;100035.47;5037767;28;20058;-67
2021/06/29 02:55:54;;;;;;;7.43;5.40;;;;;;;21.43;60.93;100037.72;5037676;28;20021;-70
2021/06/29 02:58:19;;;;;;;10.13;6.63;;;;;;;21.39;60.93;100033.47;5037497;28;20029;-70
2021/06/29 03:00:45;;;;;;;16.00;7.13;;;;;;;21.34;61.30;100034.13;5037590;28;20025;-70
2021/06/29 03:03:10;;;;;;;17.40;7.60;;;;;;;21.31;61.41;100029.38;5037529;28;20025;-69
2021/06/29 03:05:35;;;;;;;12.85;7.63;;;;;;;21.28;61.45;100037.66;5037362;28;20033;-69
2021/06/29 03:08:01;;;;;;;9.82;7.65;;;;;;;21.27;61.27;100030.34;5037362;28;20032;-69
2021/06/29 03:10:26;;;;;;;13.90;7.82;;;;;;;21.24;61.27;100037.03;5037906;28;20033;-72
2021/06/29 03:12:52;;;;;;;11.43;6.15;;;;;;;21.23;61.35;100031.78;5037291;28;20040;-72
2021/06/29 03:15:17;;;;;;;10.23;5.45;;;;;;;21.23;61.44;100037.50;5037562;28;20529;-71
2021/06/29 03:17:42;;;;;;;9.20;5.38;;;;;;;21.20;61.38;100024.19;5037445;28;20026;-72
2021/06/29 03:20:11;;;;;;;7.68;4.88;;;;;;;21.18;61.96;100021.81;5037708;28;20022;-72
2021/06/29 03:22:38;;;;;;;12.30;5.63;;;;;;;21.15;62.06;100019.91;5019838;28;20599;-72
2021/06/29 03:25:04;;;;;;;15.98;5.28;;;;;;;21.11;62.38;100022.16;5016887;28;20022;-71
2021/06/29 03:27:29;;;;;;;7.47;5.00;;;;;;;21.09;62.57;100021.88;5028857;28;20443;-71
2021/06/29 03:29:55;;;;;;;6.93;4.95;;;;;;;21.08;62.43;100022.31;5037130;28;20039;-71
2021/06/29 03:32:20;;;;;;;6.80;5.10;;;;;;;21.11;61.83;100022.16;5037129;28;20064;-70
2021/06/29 03:34:45;;;;;;;10.20;4.95;;;;;;;21.15;61.82;100021.97;5037154;28;20084;-72
2021/06/29 03:37:10;;;;;;;8.10;5.90;;;;;;;21.17;61.31;100025.16;5019478;28;20087;-71
2021/06/29 03:39:36;;;;;;;14.02;5.85;;;;;;;21.17;61.50;100025.94;5037331;28;20033;-74
2021/06/29 03:42:01;;;;;;;8.10;5.28;;;;;;;21.21;61.26;100026.53;5035904;28;20033;-69
2021/06/29 03:44:27;;;;;;;9.70;5.20;;;;;;;21.23;61.40;100028.91;5019306;28;20117;-70
2021/06/29 03:46:52;;;;;;;11.63;4.95;;;;;;;21.24;61.57;100031.31;5036764;28;20031;-70
2021/06/29 03:49:18;;;;;;;10.68;5.55;;;;;;;21.24;61.63;100037.03;5019243;28;20120;-70
2021/06/29 03:51:44;;;;;;;14.63;6.03;;;;;;;21.26;61.56;100031.63;5035639;28;20061;-71
2021/06/29 03:54:10;;;;;;;13.70;4.97;;;;;;;21.32;62.12;100036.66;5037002;28;20075;-71
2021/06/29 03:56:35;;;;;;;12.45;6.57;;;;;;;21.33;61.86;100043.97;5036793;28;20029;-71
2021/06/29 03:59:05;;;;;;;19.92;6.43;;;;;;;21.38;61.52;100046.19;5036464;28;20045;-70
2021/06/29 04:01:31;;;;;;;10.07;5.88;;;;;;;21.42;61.86;100035.34;5036636;28;20033;-71
2021/06/29 04:03:58;;;;;;;16.38;7.65;;;;;;;21.45;61.73;100040.09;5036182;28;20029;-71
2021/06/29 04:06:25;;;;;;;18.90;10.40;;;;;;;21.49;62.18;100052.13;5025502;28;20084;-71
2021/06/29 04:08:54;;;;;;;20.08;12.35;;;;;;;21.55;61.90;100044.47;5036414;28;20037;-71
2021/06/29 04:11:21;;;;;;;20.85;12.20;;;;;;;21.65;61.43;100045.22;5018553;28;20116;-71
2021/06/29 04:13:47;;;;;;;18.08;11.55;;;;;;;21.74;61.34;100050.84;5036616;28;20057;-72
2021/06/29 04:16:12;;;;;;;20.67;10.95;;;;;;;21.83;61.82;100051.56;5026254;28;20101;-68
2021/06/29 04:18:38;;;;;;;14.43;8.85;;;;;;;21.90;61.54;100051.19;5035317;28;20113;-68
2021/06/29 04:21:04;;;;;;;12.95;6.72;;;;;;;22.03;60.85;100050.16;5036314;28;20048;-71
2021/06/29 04:23:29;;;;;;;16.10;5.65;;;;;;;22.15;60.57;100049.09;5036127;28;20044;-71
2021/06/29 04:25:55;;;;;;;8.02;5.55;;;;;;;22.25;60.63;100044.88;5018047;28;20044;-69
2021/06/29 04:28:20;;;;;;;6.40;5.05;;;;;;;22.36;61.13;100044.28;5036054;28;20040;-68
2021/06/29 04:30:46;;;;;;;5.32;4.82;;;;;;;22.44;60.93;100043.41;5036221;28;20516;-67
2021/06/29 04:33:11;;;;;;;5.07;4.55;;;;;;;22.54;60.66;100046.97;5036026;28;20030;-68
2021/06/29 04:35:36;;;;;;;8.00;4.47;;;;;;;22.66;60.00;100045.09;5036063;28;20295;-69
2021/06/29 04:38:02;;;;;;;6.07;4.32;;;;;;;22.78;59.63;100055.47;5018457;28;20024;-66
2021/06/29 04:40:27;;;;;;;6.93;4.88;;;;;;;22.88;59.46;100044.69;5035475;28;20104;-68
2021/06/29 04:42:52;;;;;;;7.55;4.45;;;;;;;23.00;59.35;100050.09;5017342;28;20148;-68
2021/06/29 04:45:18;;;;;;;11.10;4.32;;;;;;;23.11;58.85;100047.41;5035809;28;20033;-68
2021/06/29 04:47:49;;;;;;;9.23;4.72;;;;;;;23.18;58.47;100040.47;5035667;28;20037;-68
2021/06/29 04:50:15;;;;;;;10.68;4.80;;;;;;;23.29;58.24;100037.78;5035579;28;20025;-68
2021/06/29 04:52:41;;;;;;;4.88;4.13;;;;;;;23.38;57.83;100036.88;5035554;28;20175;-68
2021/06/29 04:55:07;;;;;;;4.75;3.80;;;;;;;23.48;58.59;100032.56;5035342;28;20143;-68
2021/06/29 04:57:34;;;;;;;11.82;4.68;;;;;;;23.58;57.96;100036.91;5034508;28;20426;-68
2021/06/29 05:00:05;;;;;;;15.73;4.93;;;;;;;23.65;57.29;100025.00;5035747;28;20060;-66
2021/06/29 05:02:31;;;;;;;13.02;5.13;;;;;;;23.73;57.59;100033.97;5034978;28;20091;-66
2021/06/29 05:04:56;;;;;;;8.82;4.55;;;;;;;23.83;57.01;100025.97;5033639;28;20037;-66
2021/06/29 05:07:21;;;;;;;10.15;4.40;;;;;;;23.92;56.10;100020.13;5034332;28;20494;-66
2021/06/29 05:09:47;;;;;;;10.20;4.10;;;;;;;24.00;56.00;100018.38;5015747;28;20029;-66
2021/06/29 05:12:12;;;;;;;18.40;4.40;;;;;;;24.09;56.04;100015.31;5030937;28;20435;-66
2021/06/29 05:14:38;;;;;;;6.35;3.88;;;;;;;24.19;55.80;100031.13;5033274;28;20029;-66
2021/06/29 05:17:03;;;;;;;6.20;3.92;;;;;;;24.30;55.00;100019.75;5021810;28;20088;-65
2021/06/29 05:19:28;;;;;;;7.72;4.05;;;;;;;24.42;55.41;100019.88;5033513;28;20021;-66
2021/06/29 05:21:54;;;;;;;7.53;4.03;;;;;;;24.51;54.84;100017.63;5033363;28;20321;-66
2021/06/29 05:24:19;;;;;;;14.35;4.70;;;;;;;24.62;54.83;100016.91;5032753;28;20360;-66
2021/06/29 05:26:45;;;;;;;8.63;4.10;;;;;;;24.69;54.83;100016.47;5016121;28;20028;-68
2021/06/29 05:29:10;;;;;;;6.95;3.83;;;;;;;24.81;54.04;100025.97;5033879;28;20033;-67
2021/06/29 05:31:36;;;;;;;5.05;3.55;;;;;;;24.92;53.34;100021.06;5033530;28;20026;-67
2021/06/29 05:34:01;;;;;;;5.70;3.95;;;;;;;25.00;52.86;100023.53;5033253;28;20432;-67
2021/06/29 05:36:26;;;;;;;7.53;3.83;;;;;;;25.07;52.63;100031.69;5034003;28;20037;-66
2021/06/29 05:38:52;;;;;;;6.53;4.03;;;;;;;25.14;53.07;100028.31;5035221;28;20026;-66
2021/06/29 05:41:17;;;;;;;6.57;3.75;;;;;;;25.24;52.94;100026.84;5034938;28;20044;-67
2021/06/29 05:43:42;;;;;;;11.23;4.03;;;;;;;25.36;52.80;100022.72;5035228;28;20067;-66
2021/06/29 05:46:08;;;;;;;7.90;3.58;;;;;;;25.49;51.96;100020.19;5034947;28;20018;-67
2021/06/29 05:48:34;;;;;;;13.48;4.20;;;;;;;25.63;51.76;100024.16;5017628;28;20079;-66
2021/06/29 05:51:00;;;;;;;8.57;3.85;;;;;;;25.74;51.05;100037.84;5035366;28;20036;-66
2021/06/29 05:53:27;;;;;;;5.80;3.28;;;;;;;25.83;51.27;100032.66;5034598;28;20084;-66
2021/06/29 05:55:53;;;;;;;8.07;3.88;;;;;;;25.96;51.23;100042.91;5035286;28;20045;-67
2021/06/29 05:58:19;;;;;;;6.18;4.07;;;;;;;26.07;50.45;100037.19;5034948;28;20378;-66
2021/06/29 06:00:44;;;;;;;11.50;3.83;;;;;;;26.15;50.42;100026.75;5034979;28;20364;-66
2021/06/29 06:03:10;;;;;;;8.82;3.63;;;;;;;26.24;50.18;100022.81;5035207;28;20029;-66
2021/06/29 06:05:35;;;;;;;11.98;4.32;;;;;;;26.32;49.60;100035.44;5022916;28;20048;-66
2021/06/29 06:08:01;;;;;;;8.70;3.53;;;;;;;26.41;49.17;100024.47;5034870;28;20060;-66
2021/06/29 06:10:26;;;;;;;7.03;3.22;;;;;;;26.51;49.05;100027.88;5034808;28;20053;-66
2021/06/29 06:12:52;;;;;;;11.23;3.72;;;;;;;26.58;49.19;100030.25;5035046;28;20026;-66
2021/06/29 06:15:17;;;;;;;5.80;4.13;;;;;;;26.68;50.77;100025.00;5034916;28;20025;-65
2021/06/29 06:17:43;;;;;;;8.80;3.30;;;;;;;26.78;48.42;100032.88;5034785;28;20022;-66
2021/06/29 06:20:10;;;;;;;8.60;3.65;;;;;;;26.93;47.75;100026.06;5035527;28;20044;-66
2021/06/29 06:22:36;;;;;;;10.43;3.55;;;;;;;27.06;47.10;100026.31;5038121;28;20032;-66
2021/06/29 06:25:02;;;;;;;8.93;3.83;;;;;;;27.18;47.06;100033.66;5038632;28;20026;-67
2021/06/29 06:27:27;;;;;;;6.20;3.08;;;;;;;27.31;45.93;100031.00;5020958;28;20060;-66
2021/06/29 06:29:52;;;;;;;6.45;3.30;;;;;;;27.39;46.49;100034.94;5038349;28;20021;-66
2021/06/29 06:32:18;;;;;;;8.95;4.22;;;;;;;27.51;46.49;100037.78;5038395;28;20112;-66
2021/06/29 06:34:43;;;;;;;7.88;3.22;;;;;;;27.62;45.47;100032.00;5020552;28;20010;-66
2021/06/29 06:37:09;;;;;;;6.28;3.40;;;;;;;27.76;44.83;100033.78;5038414;28;20099;-66
2021/06/29 06:39:34;;;;;;;6.75;3.03;;;;;;;27.88;44.62;100026.63;5038161;28;20025;-66
2021/06/29 06:41:59;;;;;;;6.75;2.92;;;;;;;27.97;44.71;100035.00;5038314;28;20105;-66
2021/06/29 06:44:25;;;;;;;9.48;3.63;;;;;;;28.07;44.14;100032.59;5038152;28;20033;-66
2021/06/29 06:46:50;;;;;;;13.88;3.10;;;;;;;28.16;43.58;100040.16;5037998;28;20029;-66
2021/06/29 06:49:16;;;;;;;4.20;2.80;;;;;;;28.23;44.42;100023.03;5037879;28;20515;-66
2021/06/29 06:51:41;;;;;;;5.53;3.08;;;;;;;28.29;43.81;100038.28;5037886;28;20028;-66
2021/06/29 06:54:06;;;;;;;6.60;3.00;;;;;;;28.36;43.78;100019.56;5038038;28;20108;-66
2021/06/29 06:56:32;;;;;;;9.48;3.20;;;;;;;28.46;44.27;100029.47;5037871;28;20053;-67
2021/06/29 06:58:57;;;;;;;6.63;3.20;;;;;;;28.52;43.26;100015.00;5037905;28;20409;-67
2021/06/29 07:01:22;;;;;;;5.05;2.80;;;;;;;28.56;44.17;100016.28;5037769;28;20033;-66
2021/06/29 07:03:48;;;;;;;6.82;2.95;;;;;;;28.62;43.39;100019.91;5037532;28;20312;-66
2021/06/29 07:06:14;;;;;;;6.93;3.05;;;;;;;28.71;42.86;100021.66;5026162;28;20053;-66
2021/06/29 07:08:40;;;;;;;7.07;2.90;;;;;;;28.84;42.69;100023.94;5038172;28;20057;-66
2021/06/29 07:11:07;;;;;;;9.52;3.75;;;;;;;28.93;43.05;100024.38;5037900;28;20032;-66
2021/06/29 07:13:32;;;;;;;9.93;3.47;;;;;;;29.04;42.05;100023.53;5037730;28;20431;-65
2021/06/29 07:15:58;;;;;;;19.30;4.22;;;;;;;29.22;41.68;100024.91;5037563;28;20021;-70
2021/06/29 07:18:23;;;;;;;9.38;3.30;;;;;;;29.29;42.13;100018.50;5037262;28;20031;-66
2021/06/29 07:20:48;;;;;;;9.90;3.42;;;;;;;29.37;40.85;100007.13;5037718;28;20018;-66
2021/06/29 07:23:16;;;;;;;5.93;2.85;;;;;;;29.46;41.12;100018.38;5037690;28;20409;-66
2021/06/29 07:25:42;;;;;;;13.48;3.25;;;;;;;29.51;40.22;100011.72;5037403;28;20312;-66
2021/06/29 07:28:09;;;;;;;5.45;2.92;;;;;;;29.58;39.22;100019.00;5037422;28;20025;-67
2021/06/29 07:30:36;;;;;;;12.50;3.05;;;;;;;29.70;39.73;100021.25;5037364;28;20029;-69
2021/06/29 07:33:03;;;;;;;3.83;2.80;;;;;;;29.84;38.79;100022.88;5035949;28;20695;-69
2021/06/29 07:35:30;;;;;;;5.85;2.33;;;;;;;29.93;38.35;100023.84;5025986;28;20026;-71
2021/06/29 07:37:56;;;;;;;6.65;2.88;;;;;;;29.95;38.26;100021.19;5016200;28;20025;-68
2021/06/29 07:40:22;;;;;;;7.10;2.88;;;;;;;29.98;38.76;100020.09;5037062;28;20029;-70
2021/06/29 07:42:47;;;;;;;6.10;2.80;;;;;;;30.00;38.37;100018.22;5036994;28;20409;-69
2021/06/29 07:45:13;;;;;;;6.25;3.13;;;;;;;30.08;38.38;100018.41;5037130;28;20060;-68
2021/06/29 07:47:39;;;;;;;6.85;3.03;;;;;;;30.20;37.93;100016.91;5037145;28;20084;-72
2021/06/29 07:50:08;;;;;;;6.00;3.38;;;;;;;30.35;38.01;100014.31;5037087;28;20017;-71
2021/06/29 07:52:35;;;;;;;4.32;2.33;;;;;;;30.48;37.50;100004.91;5036832;28;20065;-67
2021/06/29 07:55:02;;;;;;;4.22;2.60;;;;;;;30.54;37.03;100008.47;5036657;28;20025;-72
2021/06/29 07:57:27;;;;;;;6.55;2.75;;;;;;;30.60;36.05;100011.28;5036766;28;20358;-68
2021/06/29 07:59:52;;;;;;;8.00;2.63;;;;;;;30.64;36.22;100003.84;5036942;28;20105;-67
2021/06/29 08:02:18;;;;;;;15.27;2.65;;;;;;;30.71;34.86;100014.06;5036361;28;20334;-68
2021/06/29 08:04:44;;;;;;;6.05;2.38;;;;;;;30.75;35.08;100014.50;5029740;28;20435;-68
2021/06/29 08:07:09;;;;;;;7.10;2.55;;;;;;;30.81;35.55;100009.38;5032041;28;20298;-69
2021/06/29 08:09:35;;;;;;;3.88;2.30;;;;;;;30.89;35.78;100003.72;5045199;28;20033;-68
2021/06/29 08:12:00;;;;;;;5.40;2.40;;;;;;;30.93;35.09;100004.94;5029687;28;20025;-68
2021/06/29 08:14:26;;;;;;;4.43;2.53;;;;;;;30.90;35.68;100000.25;5036374;28;20030;-66
2021/06/29 08:16:51;;;;;;;16.20;3.28;;;;;;;30.94;35.38;100003.59;5036376;28;20508;-67
2021/06/29 08:19:17;;;;;;;7.32;2.90;;;;;;;31.05;35.05;100002.63;5036124;28;20021;-67
2021/06/29 08:21:43;;;;;;;5.60;2.40;;;;;;;31.18;34.97;100002.66;5036491;28;20104;-66
2021/06/29 08:24:09;;;;;;;3.13;2.47;;;;;;;31.31;34.42;100013.53;5036387;28;20441;-68
2021/06/29 08:26:34;;;;;;;19.38;3.40;;;;;;;31.34;34.37;100012.41;5036068;28;20464;-67
2021/06/29 08:29:00;;;;;;;4.25;2.78;;;;;;;31.39;34.45;100005.72;5036349;28;20037;-67
2021/06/29 08:31:26;;;;;;;8.95;2.67;;;;;;;31.41;34.18;99997.22;5035788;28;20029;-70
2021/06/29 08:33:53;;;;;;;16.10;3.40;;;;;;;31.41;34.26;100008.84;5036299;28;20317;-68
2021/06/29 08:36:20;;;;;;;4.18;2.90;;;;;;;31.47;34.10;100000.78;5036113;28;20087;-68
2021/06/29 08:38:46;;;;;;;4.82;2.50;;;;;;;31.61;33.83;99996.56;5036187;28;20036;-66
2021/06/29 08:41:12;;;;;;;3.13;2.40;;;;;;;31.73;34.53;99997.13;5036225;28;20320;-67
2021/06/29 08:43:40;;;;;;;3.60;2.47;;;;;;;31.76;34.08;99990.19;5036162;28;20029;-67
2021/06/29 08:46:05;;;;;;;6.15;2.75;;;;;;;31.83;34.03;99991.66;5036080;28;20030;-68
2021/06/29 08:48:30;;;;;;;5.78;2.67;;;;;;;31.84;34.27;99987.41;5035763;28;20032;-67
2021/06/29 08:50:56;;;;;;;7.15;3.03;;;;;;;31.91;33.57;99989.59;5035718;28;20029;-69
2021/06/29 08:53:22;;;;;;;4.50;3.00;;;;;;;31.93;33.94;99984.00;5035619;28;20044;-68
2021/06/29 08:55:49;;;;;;;3.53;2.97;;;;;;;32.02;33.86;99986.44;5035782;28;20013;-66
2021/06/29 08:58:19;;;;;;;10.90;2.97;;;;;;;32.09;33.77;99993.72;5035767;28;20025;-68
2021/06/29 09:00:47;;;;;;;5.53;2.97;;;;;;;32.19;32.94;99983.94;5018005;28;20029;-66
2021/06/29 09:03:12;;;;;;;5.72;3.03;;;;;;;32.19;33.14;100001.38;5035806;28;20368;-68
2021/06/29 09:05:43;;;;;;;6.38;2.90;;;;;;;32.13;32.91;99991.25;5023583;28;20114;-73
2021/06/29 09:08:14;;;;;;;8.25;3.72;;;;;;;32.20;32.23;99988.41;5036088;28;20071;-72
2021/06/29 09:10:43;;;;;;;;;;;;;;;32.25;31.15;99975.06;5035894;28;20090;-71
2021/06/29 09:13:10;;;;;;;6.53;2.45;;;;;;;32.26;32.17;99980.34;5035629;28;20208;-72
2021/06/29 09:15:42;;;;;;;2.95;2.60;;;;;;;32.32;32.04;99974.41;5035243;28;20102;-71
2021/06/29 09:18:11;;;;;;;6.15;3.08;;;;;;;32.40;32.23;99968.69;5035601;28;20026;-72
2021/06/29 09:20:56;;;;;;;5.03;2.85;;;;;;;32.44;32.58;99969.13;5035588;28;20026;-73
2021/06/29 09:23:24;;;;;;;3.50;2.92;;;;;;;32.48;32.19;99964.50;5018024;28;20281;-73
2021/06/29 09:26:14;;;;;;;7.93;2.90;;;;;;;32.57;31.69;99963.22;5035412;28;20490;-73
2021/06/29 09:28:41;;;;;;;3.85;3.10;;;;;;;32.62;31.58;99979.78;5035423;28;20555;-72
2021/06/29 09:31:08;;;;;;;5.28;2.60;;;;;;;32.51;31.70;99965.50;5035145;28;20059;-72
2021/06/29 09:33:44;;;;;;;4.15;2.97;;;;;;;32.61;31.92;99972.41;5035423;28;20028;-72
2021/06/29 09:36:17;;;;;;;6.60;2.80;;;;;;;32.68;30.46;99956.34;5017684;28;20025;-73
2021/06/29 09:38:48;;;;;;;7.18;2.80;;;;;;;32.77;31.45;99962.44;5035480;28;20448;-72
2021/06/29 09:41:18;;;;;;;10.18;2.78;;;;;;;32.86;30.91;99959.03;5035208;28;20030;-72
2021/06/29 09:43:46;;;;;;;6.70;2.80;;;;;;;32.90;30.44;99961.63;5017701;28;20036;-73
2021/06/29 09:46:17;;;;;;;3.00;2.70;;;;;;;32.90;30.35;99957.94;5035104;28;20124;-72
2021/06/29 09:48:54;;;;;;;8.52;3.08;;;;;;;32.99;29.02;99948.66;5035033;28;20013;-67
2021/06/29 09:51:20;;;;;;;7.03;3.00;;;;;;;33.00;30.29;99945.19;5035081;28;20060;-67
2021/06/29 09:53:51;;;;;;;2.83;2.50;;;;;;;33.06;30.66;99948.72;5035095;28;20045;-67
2021/06/29 09:56:23;;;;;;;8.90;3.47;;;;;;;33.15;30.40;99935.78;5037360;28;20018;-68
2021/06/29 09:58:53;;;;;;;2.97;2.67;;;;;;;33.22;30.42;99932.16;5038770;28;20390;-69
2021/06/29 10:01:22;;;;;;;3.63;2.77;;;;;;;33.27;30.32;99947.91;5038962;28;20313;-67
2021/06/29 10:03:52;;;;;;;7.38;3.10;;;;;;;33.25;31.06;99941.88;5038995;28;20057;-67
2021/06/29 10:06:23;;;;;;;4.82;2.88;;;;;;;33.25;30.69;99931.00;5027405;28;20026;-67
2021/06/29 10:08:54;;;;;;;6.20;2.67;;;;;;;33.30;30.12;99932.97;5038699;28;20030;-68
2021/06/29 10:11:25;;;;;;;5.55;2.83;;;;;;;33.43;29.22;99935.81;5038931;28;20421;-68
2021/06/29 10:14:02;;;;;;;5.00;2.63;;;;;;;33.49;29.72;99930.59;5038550;28;20060;-67
2021/06/29 10:16:43;;;;;;;17.55;3.03;;;;;;;33.49;29.69;99932.72;5038990;28;20021;-69
2021/06/29 10:21:43;;;;;;;4.93;3.10;;;;;;;33.69;29.66;99928.91;5038692;28;20033;-68
2021/06/29 10:24:10;;;;;;;5.38;3.35;;;;;;;33.84;29.29;99912.88;5038627;28;20033;-69
2021/06/29 10:26:39;;;;;;;3.58;3.17;;;;;;;33.97;28.87;99916.44;5020819;28;20321;-71
2021/06/29 10:29:09;;;;;;;5.28;2.83;;;;;;;34.19;28.48;99922.88;5038480;28;20040;-67
2021/06/29 10:31:37;;;;;;;5.95;2.67;;;;;;;34.27;27.70;99909.09;5038769;28;20029;-71
2021/06/29 10:34:08;;;;;;;4.50;2.70;;;;;;;34.35;28.00;99915.75;5038412;28;20128;-69
2021/06/29 10:36:38;;;;;;;3.92;2.47;;;;;;;34.35;28.23;99912.84;5038283;28;20022;-71
2021/06/29 10:39:04;;;;;;;6.13;2.63;;;;;;;34.28;27.96;99907.75;5020967;28;20408;-71
2021/06/29 10:41:43;;;;;;;5.93;2.53;;;;;;;34.28;28.48;99904.84;5037842;28;20164;-71
2021/06/29 10:44:11;;;;;;;4.00;3.08;;;;;;;34.16;27.95;99900.72;5038448;28;20032;-72
2021/06/29 10:46:46;;;;;;;4.10;2.60;;;;;;;34.18;28.32;99889.25;5037873;28;20024;-70
2021/06/29 10:49:31;;;;;;;11.65;3.05;;;;;;;34.22;26.55;99892.53;5038224;28;20032;-72
2021/06/29 10:52:00;;;;;;;4.20;2.90;;;;;;;34.33;27.78;99901.72;5020366;28;20042;-71
2021/06/29 10:54:43;;;;;;;2.75;2.53;;;;;;;34.39;27.95;99901.56;5038019;28;20483;-71
2021/06/29 10:57:12;;;;;;;6.78;2.60;;;;;;;34.49;27.34;99890.06;5037719;28;20328;-71
2021/06/29 10:59:39;;;;;;;5.88;2.72;;;;;;;34.54;28.19;99881.16;5038015;28;20025;-70
2021/06/29 11:02:07;;;;;;;5.10;2.70;;;;;;;34.58;27.80;99878.63;5037835;28;20025;-71
2021/06/29 11:04:58;;;;;;;4.00;2.67;;;;;;;34.58;27.74;99883.69;5032648;28;20043;-71
2021/06/29 11:07:26;;;;;;;;;;;;;;;34.51;27.22;99873.53;5034015;28;20045;-73
2021/06/29 11:10:02;;;;;;;8.90;3.25;;;;;;;34.55;27.93;99885.63;5027506;28;20006;-73
2021/06/29 11:12:30;;;;;;;4.43;2.80;;;;;;;34.60;27.40;99881.72;5035683;28;20036;-72
2021/06/29 11:14:58;;;;;;;4.68;2.90;;;;;;;34.67;26.80;99874.31;5038104;28;20017;-68
2021/06/29 11:17:58;;;;;;;5.20;3.17;;;;;;;34.76;27.39;99878.78;5037388;28;20123;-72
2021/06/29 11:20:25;;;;;;;4.30;2.80;;;;;;;34.82;26.52;99876.47;5037516;28;20074;-72
2021/06/29 11:23:06;;;;;;;4.65;2.47;;;;;;;34.80;26.24;99876.28;5037538;28;20025;-70
2021/06/29 11:25:37;;;;;;;3.95;3.15;;;;;;;34.77;25.65;99874.50;5037169;28;20112;-67
2021/06/29 11:28:20;;;;;;;4.07;2.58;;;;;;;34.84;25.46;99870.84;5037455;28;20029;-72
2021/06/29 11:31:18;;;;;;;2.60;2.40;;;;;;;34.90;25.65;99872.19;5037339;28;20421;-73
2021/06/29 11:33:44;;;;;;;5.10;2.30;;;;;;;35.02;25.67;99872.53;5037348;28;20037;-72
2021/06/29 11:36:36;;;;;;;9.20;2.65;;;;;;;35.11;25.77;99866.13;5037112;28;20018;-72
2021/06/29 11:39:17;;;;;;;3.35;2.65;;;;;;;35.11;25.21;99866.13;5037378;28;20033;-70